Time;durP1;ratioP1;P1;durP2;ratioP2;P2;SDS_P1;SDS_P2;PMS_P1;PMS_P2;Temp;Humidity;BMP_temperature;BMP_pressure;BME280_temperature;BME280_humidity;BME280_pressure;Samples;Min_cycle;Max_cycle;Signal;HPM_P1;HPM_P2
2021/08/15 05:02:08;;;;;;;5.82;4.68;;;;;;;28.31;43.30;95165.63;5166383;23;20070;-74
2021/08/15 05:04:34;;;;;;;8.23;4.90;;;;;;;27.99;43.47;95167.91;4915953;29;20039;-74
2021/08/15 05:06:59;;;;;;;4.85;4.28;;;;;;;27.45;45.28;95168.66;4917438;29;20547;-74
2021/08/15 05:09:25;;;;;;;5.00;4.50;;;;;;;28.51;42.09;95176.13;4916911;29;20035;-74
2021/08/15 05:11:50;;;;;;;4.53;4.00;;;;;;;29.45;40.52;95172.16;4949524;29;20086;-75
2021/08/15 05:14:15;;;;;;;5.20;4.82;;;;;;;28.54;41.58;95172.13;4933338;29;20496;-74
2021/08/15 05:16:42;;;;;;;10.32;9.30;;;;;;;30.31;38.74;95168.50;4948811;29;20435;-74
2021/08/15 05:19:07;;;;;;;13.48;10.75;;;;;;;30.16;38.76;95180.16;4917301;29;20513;-74
2021/08/15 05:21:33;;;;;;;18.05;16.08;;;;;;;30.56;37.86;95170.03;4913476;29;20074;-74
2021/08/15 05:23:58;;;;;;;53.60;44.28;;;;;;;30.36;38.02;95178.31;4882690;29;20063;-74
2021/08/15 05:26:24;;;;;;;48.95;40.88;;;;;;;31.20;37.16;95172.75;4897311;29;20043;-74
2021/08/15 05:28:50;;;;;;;35.65;30.60;;;;;;;31.45;36.73;95178.72;4913172;29;20067;-75
2021/08/15 05:31:15;;;;;;;28.40;22.05;;;;;;;31.74;36.34;95180.06;4898150;29;20036;-74
2021/08/15 05:33:41;;;;;;;40.65;20.02;;;;;;;32.86;34.46;95178.47;4896829;29;20071;-74
2021/08/15 05:36:07;;;;;;;37.50;15.73;;;;;;;32.80;34.56;95177.81;4898358;29;20028;-74
2021/08/15 05:38:32;;;;;;;7.55;6.95;;;;;;;31.69;35.04;95182.06;4912595;29;20020;-74
2021/08/15 05:40:58;;;;;;;7.03;6.13;;;;;;;32.49;33.58;95187.66;4913808;29;20071;-75
2021/08/15 05:43:23;;;;;;;5.40;4.97;;;;;;;32.54;33.80;95178.66;4896823;29;20055;-74
2021/08/15 05:45:49;;;;;;;7.07;5.38;;;;;;;33.79;32.29;95190.91;4913534;29;20082;-74
2021/08/15 05:48:14;;;;;;;6.35;4.45;;;;;;;33.60;32.31;95178.78;4929977;29;20089;-74
2021/08/15 05:50:39;;;;;;;7.22;4.75;;;;;;;33.34;32.47;95179.44;4929802;29;20548;-74
2021/08/15 05:53:05;;;;;;;5.93;4.45;;;;;;;32.98;33.66;95185.97;4932348;29;20031;-74
2021/08/15 05:55:30;;;;;;;4.47;4.10;;;;;;;33.82;32.21;95189.47;4899943;29;20019;-74
2021/08/15 05:57:56;;;;;;;5.63;4.78;;;;;;;34.14;31.57;95182.94;4933827;29;20035;-74
2021/08/15 06:00:21;;;;;;;4.30;3.90;;;;;;;34.11;31.52;95180.88;4915936;29;20548;-75
2021/08/15 06:02:47;;;;;;;4.40;4.00;;;;;;;33.74;32.59;95179.50;4934878;29;20528;-74
2021/08/15 06:05:13;;;;;;;4.70;4.20;;;;;;;31.09;36.31;95184.72;4915819;29;20031;-75
2021/08/15 06:07:39;;;;;;;5.05;4.40;;;;;;;29.24;41.06;95181.44;4934274;29;20405;-74
2021/08/15 06:10:05;;;;;;;5.75;4.30;;;;;;;29.18;40.40;95169.22;4916711;29;20034;-74
2021/08/15 06:12:31;;;;;;;5.45;4.35;;;;;;;29.77;39.47;95176.88;4900599;29;20034;-75
2021/08/15 06:14:56;;;;;;;4.75;4.00;;;;;;;29.89;40.10;95177.31;4934273;29;20079;-75
2021/08/15 06:17:22;;;;;;;5.18;4.40;;;;;;;30.33;38.72;95175.13;4915920;29;20032;-74
2021/08/15 06:19:47;;;;;;;5.30;4.50;;;;;;;32.42;35.50;95171.16;4901654;29;20059;-75
2021/08/15 06:22:13;;;;;;;6.68;4.40;;;;;;;35.63;29.87;95160.72;4915465;29;20043;-74
2021/08/15 06:24:39;;;;;;;7.40;4.78;;;;;;;37.14;28.46;95162.25;4934287;29;20130;-74
2021/08/15 06:27:04;;;;;;;5.68;4.55;;;;;;;36.79;28.96;95157.16;4915937;29;20110;-74
2021/08/15 06:29:30;;;;;;;5.80;4.30;;;;;;;37.60;27.82;95164.63;4933504;29;20504;-74
2021/08/15 06:31:56;;;;;;;5.28;4.72;;;;;;;35.24;29.28;95159.06;4917270;29;20490;-74
2021/08/15 06:34:21;;;;;;;4.82;4.43;;;;;;;35.96;30.06;95167.06;4914876;29;20094;-74
2021/08/15 06:36:47;;;;;;;7.53;4.78;;;;;;;34.49;30.50;95170.31;4901209;29;20062;-74
2021/08/15 06:39:12;;;;;;;5.45;4.70;;;;;;;36.06;29.11;95169.41;4899776;29;20074;-74
2021/08/15 06:41:38;;;;;;;5.28;4.80;;;;;;;34.69;29.97;95169.72;4901288;29;20149;-75
2021/08/15 06:44:03;;;;;;;5.95;4.30;;;;;;;32.04;33.53;95167.97;4899200;29;20036;-75
2021/08/15 06:46:29;;;;;;;4.95;4.45;;;;;;;29.91;38.89;95163.66;4900928;29;20035;-74
2021/08/15 06:48:54;;;;;;;7.53;4.60;;;;;;;29.58;38.79;95160.81;4933491;29;20024;-74
2021/08/15 06:51:20;;;;;;;5.15;4.65;;;;;;;30.73;37.77;95155.00;4932379;29;20474;-74
2021/08/15 06:53:45;;;;;;;5.45;4.55;;;;;;;30.81;36.53;95162.41;4916842;29;20031;-74
2021/08/15 06:56:12;;;;;;;5.18;4.43;;;;;;;31.14;36.60;95157.06;4914848;29;20122;-74
2021/08/15 06:58:37;;;;;;;9.00;4.57;;;;;;;30.78;37.88;95154.16;4933561;29;20429;-74
2021/08/15 07:01:03;;;;;;;7.13;4.75;;;;;;;26.83;43.09;95157.53;4914843;29;20046;-75
2021/08/15 07:03:29;;;;;;;5.90;5.13;;;;;;;30.68;38.61;95147.09;4901021;29;20050;-74
2021/08/15 07:05:55;;;;;;;8.82;5.18;;;;;;;36.33;29.79;95141.94;4914566;29;20408;-74
2021/08/15 07:08:20;;;;;;;6.13;4.50;;;;;;;31.50;35.07;95147.28;4884068;29;20493;-74
2021/08/15 07:10:46;;;;;;;7.63;6.78;;;;;;;29.63;39.58;95147.41;4933491;29;20055;-74
2021/08/15 07:13:11;;;;;;;5.40;4.90;;;;;;;29.17;41.09;95148.94;4883315;29;20035;-74
2021/08/15 07:15:37;;;;;;;4.70;4.30;;;;;;;30.09;39.21;95154.88;4916359;29;20620;-74
2021/08/15 07:18:03;;;;;;;6.25;4.50;;;;;;;29.68;38.62;95157.22;4914779;29;20047;-74
2021/08/15 07:20:28;;;;;;;7.65;5.07;;;;;;;29.01;39.79;95150.16;4900405;29;20062;-75
2021/08/15 07:22:54;;;;;;;5.65;4.90;;;;;;;29.91;38.88;95150.31;4914624;29;20118;-74
2021/08/15 07:25:20;;;;;;;7.90;5.35;;;;;;;30.52;38.96;95137.69;4915763;29;20035;-75
2021/08/15 07:27:46;;;;;;;5.88;5.07;;;;;;;30.70;38.21;95146.78;4899002;29;20035;-74
2021/08/15 07:30:12;;;;;;;6.72;6.10;;;;;;;30.14;39.64;95147.59;4914588;29;20031;-74
2021/08/15 07:32:57;;;;;;;11.73;10.60;;;;;;;29.63;41.75;95138.59;4916089;29;20023;-74
2021/08/15 07:35:23;;;;;;;5.40;4.88;;;;;;;29.95;41.17;95128.06;4931356;29;20039;-74
2021/08/15 07:37:49;;;;;;;7.32;5.00;;;;;;;30.08;39.98;95132.72;4916034;29;20042;-74
2021/08/15 07:40:14;;;;;;;6.18;4.75;;;;;;;30.22;38.85;95125.53;4914260;29;20401;-74
2021/08/15 07:42:40;;;;;;;6.28;5.63;;;;;;;29.68;40.93;95128.66;4915513;29;20060;-75
2021/08/15 07:45:06;;;;;;;8.38;5.40;;;;;;;29.36;41.12;95131.16;4932392;29;20533;-74
2021/08/15 07:47:32;;;;;;;6.28;5.40;;;;;;;29.95;40.37;95121.94;4914301;29;20023;-75
2021/08/15 07:49:57;;;;;;;7.50;5.15;;;;;;;30.33;40.15;95123.53;4899978;29;20031;-74
2021/08/15 07:52:22;;;;;;;5.22;4.80;;;;;;;29.90;38.72;95133.47;4930950;29;20707;-74
2021/08/15 07:54:48;;;;;;;5.70;5.20;;;;;;;29.27;41.14;95135.53;4914605;29;20032;-74
2021/08/15 07:57:13;;;;;;;6.13;4.88;;;;;;;28.82;42.58;95128.72;4930700;29;20027;-76
2021/08/15 07:59:39;;;;;;;6.40;5.20;;;;;;;30.18;41.26;95121.84;4932053;29;20024;-75
2021/08/15 08:02:04;;;;;;;5.32;4.80;;;;;;;29.75;40.49;95126.44;4898120;29;20050;-75
2021/08/15 08:04:30;;;;;;;5.60;5.10;;;;;;;29.64;39.23;95130.28;4912997;29;20086;-74
2021/08/15 08:06:57;;;;;;;5.05;4.65;;;;;;;30.51;40.68;95121.94;4914023;29;20374;-75
2021/08/15 08:09:23;;;;;;;5.22;4.60;;;;;;;31.15;38.04;95129.19;4912721;29;20122;-75
2021/08/15 08:11:49;;;;;;;6.53;4.82;;;;;;;29.68;39.20;95122.50;4898059;29;20495;-74
2021/08/15 08:14:15;;;;;;;4.95;4.40;;;;;;;30.14;40.41;95114.72;4881763;29;20035;-75
2021/08/15 08:16:40;;;;;;;4.68;4.25;;;;;;;31.25;37.63;95116.41;4912950;29;20122;-74
2021/08/15 08:19:06;;;;;;;7.55;4.45;;;;;;;30.42;38.37;95116.47;4929821;29;20391;-74
2021/08/15 08:21:31;;;;;;;4.47;4.18;;;;;;;30.28;36.99;95121.72;4912967;29;20098;-74
2021/08/15 08:23:57;;;;;;;7.70;4.60;;;;;;;30.99;36.47;95114.47;4930629;29;20114;-74
2021/08/15 08:26:22;;;;;;;5.07;4.68;;;;;;;30.83;38.17;95109.34;4909123;29;20486;-74
2021/08/15 08:28:47;;;;;;;4.85;4.45;;;;;;;31.10;37.35;95108.66;4914684;29;20047;-74
2021/08/15 08:31:14;;;;;;;7.13;4.78;;;;;;;30.66;37.62;95111.81;4934187;29;20035;-74
2021/08/15 08:33:39;;;;;;;5.03;4.38;;;;;;;31.54;36.88;95110.78;4934132;29;20032;-75
2021/08/15 08:36:05;;;;;;;5.25;4.45;;;;;;;31.49;36.11;95102.03;4917985;29;20041;-74
2021/08/15 08:38:30;;;;;;;4.32;3.85;;;;;;;30.67;35.30;95105.34;4895446;29;20118;-74
2021/08/15 08:40:56;;;;;;;5.03;3.95;;;;;;;30.07;37.29;95093.69;4912707;29;20038;-75
2021/08/15 08:43:22;;;;;;;5.15;4.35;;;;;;;28.84;36.93;95102.56;4881196;29;20035;-76
2021/08/15 08:45:47;;;;;;;4.50;4.20;;;;;;;28.58;37.90;95088.63;4913116;29;20043;-75
2021/08/15 08:48:15;;;;;;;5.13;4.60;;;;;;;29.80;38.33;95094.28;4895917;29;20504;-76
2021/08/15 08:50:40;;;;;;;5.03;4.28;;;;;;;30.87;36.56;95090.03;4896983;29;20134;-79
2021/08/15 08:53:06;;;;;;;4.40;4.00;;;;;;;30.70;35.31;95079.88;4895404;29;20032;-77
2021/08/15 08:55:31;;;;;;;4.30;3.90;;;;;;;30.40;34.65;95077.72;4895512;29;20185;-75
2021/08/15 08:57:57;;;;;;;4.38;4.07;;;;;;;31.57;33.89;95072.69;4895552;29;20032;-75
2021/08/15 09:00:23;;;;;;;5.53;3.72;;;;;;;31.59;34.00;95075.88;4910637;29;20176;-74
2021/08/15 09:02:48;;;;;;;4.57;4.18;;;;;;;31.61;34.64;95068.31;4929468;29;20031;-75
2021/08/15 09:05:13;;;;;;;5.22;3.80;;;;;;;31.07;34.05;95062.94;4911821;29;20520;-76
2021/08/15 09:07:41;;;;;;;4.72;4.32;;;;;;;31.24;34.20;95068.50;4912934;29;20469;-75
2021/08/15 09:10:09;;;;;;;5.93;3.90;;;;;;;31.29;32.97;95061.16;4880557;29;20032;-76
2021/08/15 09:12:40;;;;;;;4.65;4.25;;;;;;;31.66;32.90;95062.06;4928668;29;20028;-75
2021/08/15 09:15:15;;;;;;;4.18;3.80;;;;;;;32.04;33.01;95057.25;4911937;29;20038;-75
2021/08/15 09:17:41;;;;;;;5.95;4.03;;;;;;;32.21;33.79;95049.31;4929283;29;20386;-75
2021/08/15 09:20:08;;;;;;;7.75;4.45;;;;;;;31.68;32.88;95049.94;4912946;29;20091;-75
2021/08/15 09:22:37;;;;;;;4.25;3.95;;;;;;;31.96;33.94;95044.50;4912064;29;20393;-75
2021/08/15 09:25:10;;;;;;;4.63;4.20;;;;;;;32.38;32.93;95041.41;4929826;29;20432;-75
2021/08/15 09:27:54;;;;;;;5.00;4.60;;;;;;;32.15;32.77;95042.50;4928446;29;20086;-75
2021/08/15 09:30:23;;;;;;;4.93;4.35;;;;;;;31.53;32.39;95036.84;4897374;29;20043;-82
2021/08/15 09:32:53;;;;;;;5.47;4.00;;;;;;;31.88;34.04;95032.63;4911733;29;20461;-75
2021/08/15 09:35:18;;;;;;;4.70;3.97;;;;;;;31.72;32.89;95023.34;4895601;29;20038;-75
2021/08/15 09:37:44;;;;;;;4.32;3.92;;;;;;;31.91;33.24;95023.19;4929009;29;20032;-75
2021/08/15 09:40:30;;;;;;;5.80;4.63;;;;;;;31.48;33.12;95020.88;4895800;29;20110;-76
2021/08/15 09:42:56;;;;;;;5.53;4.28;;;;;;;31.81;33.19;95024.22;4909056;29;20498;-76
2021/08/15 09:45:34;;;;;;;5.10;4.25;;;;;;;32.17;34.01;95022.31;4892893;29;20035;-75
2021/08/15 09:48:20;;;;;;;4.47;4.18;;;;;;;32.36;32.76;95020.25;4910067;29;20405;-76
2021/08/15 09:51:05;;;;;;;6.75;4.03;;;;;;;31.99;33.59;95014.41;4893339;29;20032;-76
2021/08/15 09:53:32;;;;;;;5.53;4.25;;;;;;;32.48;31.97;95011.63;4911604;29;20032;-75
2021/08/15 09:55:57;;;;;;;4.43;3.92;;;;;;;32.18;32.13;95007.00;4896353;29;20039;-76
2021/08/15 09:58:23;;;;;;;7.50;4.10;;;;;;;32.43;32.67;95005.63;4895391;29;20028;-76
2021/08/15 10:00:49;;;;;;;4.40;4.10;;;;;;;32.96;32.76;95000.22;4911672;29;20497;-80
2021/08/15 10:03:15;;;;;;;4.30;4.00;;;;;;;32.49;31.12;95007.88;4896598;29;20031;-76
2021/08/15 10:05:44;;;;;;;4.38;3.90;;;;;;;32.07;32.80;95001.13;4895249;29;20123;-76
2021/08/15 10:08:09;;;;;;;4.57;4.28;;;;;;;31.71;32.36;94986.91;4912346;29;20111;-77
2021/08/15 10:10:38;;;;;;;5.35;4.10;;;;;;;32.15;33.11;94989.66;4895521;29;20028;-80
2021/08/15 10:13:07;;;;;;;4.82;3.63;;;;;;;31.92;31.47;94990.69;4896287;29;20051;-77
2021/08/15 10:15:34;;;;;;;4.55;3.92;;;;;;;32.13;31.79;94986.50;4903407;29;20099;-78
2021/08/15 10:18:00;;;;;;;4.47;4.07;;;;;;;31.78;31.79;94982.72;4894385;29;20024;-77
2021/08/15 10:20:27;;;;;;;4.90;4.50;;;;;;;31.99;31.35;94982.25;4911029;29;20043;-77
2021/08/15 10:23:24;;;;;;;4.35;4.05;;;;;;;31.41;31.58;94974.13;4912767;29;20036;-81
2021/08/15 10:25:49;;;;;;;7.78;4.47;;;;;;;31.76;31.78;94963.47;4904206;29;20047;-77
2021/08/15 10:28:38;;;;;;;4.32;3.92;;;;;;;32.63;31.70;94973.69;4883824;29;20351;-78
2021/08/15 10:31:03;;;;;;;5.07;4.57;;;;;;;30.23;33.05;94964.06;4930765;29;20028;-82
2021/08/15 10:33:31;;;;;;;5.40;4.50;;;;;;;31.71;31.94;94952.88;4883034;29;20046;-82
2021/08/15 10:36:15;;;;;;;5.43;4.03;;;;;;;32.52;31.46;94961.63;4859794;29;20028;-80
2021/08/15 10:38:40;;;;;;;5.43;4.40;;;;;;;30.98;32.45;94953.09;4908830;29;20829;-83
2021/08/15 10:41:06;;;;;;;4.53;4.13;;;;;;;31.91;31.40;94948.13;4878925;29;20063;-78
2021/08/15 10:43:31;;;;;;;6.10;3.92;;;;;;;31.93;31.45;94943.25;4880100;29;20576;-78
2021/08/15 10:46:09;;;;;;;4.65;4.25;;;;;;;32.50;32.27;94950.41;4912281;29;20036;-78
2021/08/15 10:49:20;;;;;;;4.50;4.20;;;;;;;32.08;31.33;94942.91;4895949;29;20047;-83
2021/08/15 10:51:50;;;;;;;4.45;3.90;;;;;;;31.40;32.00;94946.59;4926838;29;20079;-78
2021/08/15 10:54:27;;;;;;;5.50;3.88;;;;;;;32.02;31.85;94941.41;4882865;29;20032;-78
2021/08/15 10:56:57;;;;;;;4.10;3.80;;;;;;;32.25;31.55;94935.75;4931721;29;20437;-77
2021/08/15 10:59:49;;;;;;;4.13;3.75;;;;;;;32.67;32.36;94929.03;4931939;29;20032;-79
2021/08/15 11:02:16;;;;;;;5.25;4.25;;;;;;;32.77;31.21;94931.47;4912196;29;20077;-80
2021/08/15 11:04:56;;;;;;;4.97;4.50;;;;;;;32.40;30.89;94926.50;4899091;29;20039;-76
2021/08/15 11:07:42;;;;;;;5.65;4.35;;;;;;;33.41;30.61;94918.34;4913169;29;20082;-77
2021/08/15 11:10:12;;;;;;;5.22;3.83;;;;;;;32.83;31.51;94926.72;4930572;29;20038;-77
2021/08/15 11:13:16;;;;;;;5.10;4.07;;;;;;;32.15;30.75;94916.44;4931519;29;20082;-79
2021/08/15 11:15:42;;;;;;;4.72;4.18;;;;;;;32.64;30.76;94904.72;4862885;29;20111;-76
2021/08/15 11:18:11;;;;;;;6.32;4.05;;;;;;;32.55;30.12;94914.59;4856593;29;20068;-77
2021/08/15 11:20:52;;;;;;;7.32;4.43;;;;;;;33.30;31.23;94903.63;4884748;29;20422;-77
2021/08/15 11:23:19;;;;;;;4.70;4.30;;;;;;;33.46;29.84;94901.28;4899951;29;20047;-77
2021/08/15 11:25:45;;;;;;;4.78;3.95;;;;;;;32.83;29.59;94899.88;4931930;29;20090;-78
2021/08/15 11:28:11;;;;;;;4.22;3.72;;;;;;;31.64;31.06;94896.22;4912728;29;20118;-77
2021/08/15 11:30:36;;;;;;;4.00;3.80;;;;;;;31.59;31.95;94903.59;4896569;29;20486;-76
2021/08/15 11:33:06;;;;;;;4.32;4.03;;;;;;;31.45;31.26;94902.81;4899717;29;20032;-77
2021/08/15 11:35:36;;;;;;;4.20;3.90;;;;;;;31.06;31.30;94890.81;4932565;29;20513;-78
2021/08/15 11:38:02;;;;;;;3.78;3.47;;;;;;;31.17;31.12;94891.38;4898297;29;20024;-77
2021/08/15 11:40:32;;;;;;;4.45;3.60;;;;;;;31.37;31.82;94888.25;4896966;29;20023;-76
2021/08/15 11:43:08;;;;;;;4.45;3.95;;;;;;;32.56;30.48;94892.81;4902708;29;20404;-76
2021/08/15 11:45:36;;;;;;;4.25;3.95;;;;;;;32.66;30.07;94878.34;4929747;29;20028;-75
2021/08/15 11:48:10;;;;;;;4.30;3.90;;;;;;;32.41;28.47;94881.69;4899588;29;20520;-75
2021/08/15 11:50:37;;;;;;;3.83;3.60;;;;;;;33.22;29.06;94875.66;4930012;29;20035;-76
2021/08/15 11:53:02;;;;;;;3.80;3.40;;;;;;;32.72;28.72;94872.53;4897757;29;20194;-79
2021/08/15 11:55:28;;;;;;;4.00;3.67;;;;;;;32.58;28.94;94861.13;4897446;29;20136;-82
2021/08/15 11:57:56;;;;;;;3.97;3.67;;;;;;;33.99;29.32;94860.59;4897761;29;20126;-77
2021/08/15 12:00:39;;;;;;;4.18;3.55;;;;;;;32.50;28.31;94858.38;4898326;29;20071;-78
2021/08/15 12:03:09;;;;;;;5.50;3.58;;;;;;;32.66;28.68;94860.34;4897822;29;20043;-88
2021/08/15 12:05:40;;;;;;;3.70;3.50;;;;;;;33.03;27.89;94855.53;4915567;29;20110;-90
2021/08/15 12:08:16;;;;;;;3.72;3.42;;;;;;;33.48;29.37;94839.94;4898532;29;20604;-83
2021/08/15 12:10:52;;;;;;;3.53;3.28;;;;;;;33.94;28.10;94841.97;4883652;29;20028;-87
2021/08/15 12:13:31;;;;;;;3.88;3.47;;;;;;;33.28;28.28;94847.53;4914856;29;20032;-85
2021/08/15 12:15:59;;;;;;;4.25;3.78;;;;;;;32.65;29.74;94837.31;4913387;29;20561;-84
2021/08/15 12:18:28;;;;;;;3.83;3.53;;;;;;;31.99;29.63;94846.31;4931008;29;20039;-87
2021/08/15 12:20:54;;;;;;;3.20;3.00;;;;;;;31.72;30.21;94798.25;4913031;29;20042;-86
2021/08/15 12:23:20;;;;;;;4.78;3.35;;;;;;;31.47;29.85;94829.06;4931271;29;20015;-86
2021/08/15 12:26:01;;;;;;;4.63;3.47;;;;;;;31.24;29.47;94840.91;4913654;29;20042;-91
2021/08/15 12:28:30;;;;;;;3.65;3.35;;;;;;;31.08;29.45;94842.34;4913455;29;20036;-90
2021/08/15 12:30:55;;;;;;;4.10;3.80;;;;;;;31.53;28.75;94838.59;4898646;29;20449;-84
2021/08/15 12:33:24;;;;;;;3.67;3.38;;;;;;;32.17;28.36;94839.19;4896500;29;20043;-87
2021/08/15 12:35:49;;;;;;;;;;;;;;;32.96;28.57;94833.72;4898512;29;20719;-84
2021/08/15 12:38:30;;;;;;;3.47;3.17;;;;;;;32.84;27.74;94831.69;4929925;29;19914;-81
2021/08/15 12:40:56;;;;;;;3.72;3.42;;;;;;;32.34;28.54;94839.22;4897471;29;20477;-86
2021/08/15 12:43:25;;;;;;;3.90;3.53;;;;;;;32.53;28.83;94820.19;4897750;29;20111;-79
2021/08/15 12:45:50;;;;;;;4.28;3.85;;;;;;;32.35;29.69;94830.09;4897055;29;20040;-84
2021/08/15 12:48:18;;;;;;;4.55;3.60;;;;;;;32.71;29.07;94830.69;4913797;29;20033;-86
2021/08/15 12:50:45;;;;;;;4.53;3.75;;;;;;;31.58;30.28;94821.63;4897045;29;20521;-81
2021/08/15 12:53:15;;;;;;;4.15;3.65;;;;;;;31.47;30.23;94821.03;4882492;29;20050;-84
2021/08/15 12:55:41;;;;;;;4.13;3.83;;;;;;;31.35;30.50;94823.47;4897558;29;20082;-90
2021/08/15 12:58:11;;;;;;;4.20;3.60;;;;;;;31.12;30.68;94821.88;4897155;29;20031;-77
2021/08/15 13:00:47;;;;;;;3.97;3.42;;;;;;;30.88;30.29;94819.44;4912493;29;20059;-77
2021/08/15 13:03:14;;;;;;;3.92;3.63;;;;;;;31.08;31.06;94813.66;4895793;29;20443;-77
2021/08/15 13:05:40;;;;;;;5.43;3.40;;;;;;;31.20;30.64;94811.25;4881768;29;20446;-77
2021/08/15 13:08:06;;;;;;;3.47;3.28;;;;;;;31.61;30.45;94815.66;4880884;29;20031;-78
2021/08/15 13:10:32;;;;;;;4.70;3.75;;;;;;;31.45;30.46;94817.88;4896809;29;20074;-79
2021/08/15 13:12:57;;;;;;;5.05;3.67;;;;;;;31.12;30.74;94813.84;4912248;29;20489;-78
2021/08/15 13:15:23;;;;;;;4.97;3.75;;;;;;;32.05;30.18;94812.13;4929279;29;20031;-76
2021/08/15 13:17:48;;;;;;;4.65;3.67;;;;;;;32.17;30.08;94813.13;4896441;29;20134;-77
2021/08/15 13:20:17;;;;;;;4.03;3.72;;;;;;;32.29;29.54;94799.16;4896070;29;20023;-78
2021/08/15 13:22:42;;;;;;;4.30;4.00;;;;;;;32.23;28.67;94795.81;4912805;29;20035;-85
2021/08/15 13:25:08;;;;;;;5.43;3.58;;;;;;;32.33;29.14;94805.47;4896094;29;20046;-80
2021/08/15 13:27:34;;;;;;;5.15;3.70;;;;;;;32.56;28.96;94792.75;4929799;29;20035;-79
2021/08/15 13:30:00;;;;;;;7.13;3.60;;;;;;;31.62;30.44;94801.16;4896196;29;20034;-80
2021/08/15 13:32:25;;;;;;;4.07;3.70;;;;;;;31.08;30.72;94802.19;4912436;29;20107;-77
2021/08/15 13:34:55;;;;;;;4.75;3.78;;;;;;;30.84;31.13;94786.34;4896379;29;20035;-78
2021/08/15 13:37:24;;;;;;;4.53;4.13;;;;;;;30.72;32.10;94789.56;4881644;29;20035;-77
2021/08/15 13:39:55;;;;;;;4.07;3.78;;;;;;;30.64;31.24;94789.47;4912528;29;20031;-76
2021/08/15 13:42:21;;;;;;;4.35;4.05;;;;;;;31.23;30.18;94788.44;4896314;29;20040;-78
2021/08/15 13:44:48;;;;;;;4.90;3.92;;;;;;;31.99;29.90;94781.16;4896633;29;20063;-77
2021/08/15 13:47:13;;;;;;;4.20;3.88;;;;;;;32.22;29.97;94775.47;4892767;29;20044;-83
2021/08/15 13:49:39;;;;;;;3.63;3.42;;;;;;;32.21;29.43;94770.38;4908942;29;20032;-76
2021/08/15 13:52:05;;;;;;;6.38;3.75;;;;;;;32.01;28.94;94779.78;4912113;29;20032;-79
2021/08/15 13:54:30;;;;;;;3.45;3.25;;;;;;;32.36;28.89;94762.72;4895748;29;20050;-77
2021/08/15 13:56:56;;;;;;;5.88;4.00;;;;;;;32.52;28.90;94762.28;4912413;29;20039;-78
2021/08/15 13:59:21;;;;;;;3.42;3.22;;;;;;;32.47;29.67;94768.56;4911594;29;20036;-80
2021/08/15 14:01:47;;;;;;;4.25;3.95;;;;;;;32.50;29.29;94762.56;4896428;29;20185;-84
2021/08/15 14:04:12;;;;;;;4.45;4.05;;;;;;;32.43;29.32;94772.97;4880407;29;20040;-83
2021/08/15 14:06:39;;;;;;;4.20;3.90;;;;;;;32.35;29.42;94761.13;4896397;29;20183;-78
2021/08/15 14:09:04;;;;;;;4.00;3.67;;;;;;;32.35;29.09;94761.13;4896373;29;20536;-78
2021/08/15 14:11:30;;;;;;;5.55;3.72;;;;;;;32.68;29.94;94774.97;4896482;29;20024;-79
2021/08/15 14:13:55;;;;;;;4.03;3.60;;;;;;;32.35;29.51;94765.72;4910984;29;20028;-80
2021/08/15 14:16:21;;;;;;;5.30;3.85;;;;;;;31.78;30.50;94778.25;4930853;29;20035;-81
2021/08/15 14:18:46;;;;;;;4.13;3.70;;;;;;;31.12;31.44;94773.69;4915949;29;20525;-75
2021/08/15 14:21:12;;;;;;;4.28;3.85;;;;;;;30.86;31.09;94765.41;4914957;29;20427;-79
2021/08/15 14:23:37;;;;;;;4.00;3.70;;;;;;;31.45;30.75;94769.66;4899821;29;20031;-79
2021/08/15 14:26:03;;;;;;;4.07;3.78;;;;;;;31.72;29.54;94769.53;4914111;29;20059;-78
2021/08/15 14:28:28;;;;;;;4.60;3.42;;;;;;;31.79;29.35;94775.25;4882773;29;20039;-77
2021/08/15 14:30:54;;;;;;;6.25;4.20;;;;;;;32.27;29.93;94763.81;4931993;29;20031;-78
2021/08/15 14:33:25;;;;;;;4.05;3.45;;;;;;;32.06;28.92;94766.25;4915078;29;20058;-79
2021/08/15 14:35:51;;;;;;;4.97;3.78;;;;;;;31.92;28.77;94764.75;4916330;29;20032;-79
2021/08/15 14:38:17;;;;;;;4.28;3.97;;;;;;;31.87;29.47;94760.31;4914826;29;20027;-78
2021/08/15 14:40:42;;;;;;;4.10;3.70;;;;;;;31.76;29.57;94770.50;4915618;29;20591;-82
2021/08/15 14:43:07;;;;;;;4.40;4.00;;;;;;;31.85;30.13;94771.31;4914505;29;20169;-78
2021/08/15 14:45:33;;;;;;;5.63;3.83;;;;;;;31.78;29.56;94759.50;4899116;29;20413;-78
2021/08/15 14:47:58;;;;;;;4.25;3.90;;;;;;;31.85;29.94;94768.66;4898683;29;20028;-78
2021/08/15 14:50:24;;;;;;;4.28;3.92;;;;;;;31.79;29.02;94769.88;4932069;29;20027;-79
2021/08/15 14:52:49;;;;;;;3.80;3.50;;;;;;;31.82;29.59;94763.91;4931747;29;20090;-77
2021/08/15 14:55:15;;;;;;;5.00;4.10;;;;;;;31.80;29.91;94752.72;4914533;29;20402;-78
2021/08/15 14:57:40;;;;;;;3.95;3.75;;;;;;;31.73;30.17;94759.59;4915552;29;20091;-78
2021/08/15 15:00:06;;;;;;;7.72;3.80;;;;;;;31.45;29.70;94761.63;4898128;29;20066;-78
2021/08/15 15:02:32;;;;;;;4.80;3.85;;;;;;;31.51;30.21;94757.75;4898557;29;20039;-78
2021/08/15 15:04:57;;;;;;;4.60;3.40;;;;;;;31.43;30.56;94752.34;4930810;29;20032;-79
2021/08/15 15:07:24;;;;;;;3.90;3.60;;;;;;;31.44;29.89;94760.03;4898803;29;20043;-78
2021/08/15 15:09:49;;;;;;;3.90;3.60;;;;;;;31.52;29.82;94766.59;4914190;29;20028;-81
2021/08/15 15:12:15;;;;;;;3.72;3.40;;;;;;;31.44;29.39;94757.38;4914024;29;20035;-78
2021/08/15 15:14:40;;;;;;;3.70;3.40;;;;;;;31.38;30.55;94755.91;4914999;29;20032;-81
2021/08/15 15:17:06;;;;;;;4.07;3.72;;;;;;;31.34;30.68;94752.25;4913802;29;20059;-78
2021/08/15 15:19:31;;;;;;;3.70;3.40;;;;;;;31.27;30.60;94757.28;4915265;29;20024;-79
2021/08/15 15:21:57;;;;;;;4.43;3.55;;;;;;;31.21;30.62;94750.47;4930423;29;20031;-78
2021/08/15 15:24:22;;;;;;;7.20;3.63;;;;;;;31.03;30.12;94752.22;4899068;29;20036;-79
2021/08/15 15:26:48;;;;;;;3.67;3.38;;;;;;;31.10;30.75;94752.59;4930058;29;20032;-78
2021/08/15 15:29:13;;;;;;;4.00;3.70;;;;;;;31.08;30.38;94748.66;4914147;29;20063;-79
2021/08/15 15:31:39;;;;;;;3.80;3.47;;;;;;;30.95;30.72;94736.91;4914288;29;20080;-79
2021/08/15 15:34:04;;;;;;;4.45;3.67;;;;;;;30.87;29.82;94739.47;4896226;29;20401;-79
2021/08/15 15:36:29;;;;;;;4.13;3.33;;;;;;;30.94;30.63;94739.84;4911707;29;20039;-79
2021/08/15 15:38:55;;;;;;;5.18;3.40;;;;;;;30.88;29.70;94735.69;4904936;29;20836;-80
2021/08/15 15:41:21;;;;;;;5.05;3.88;;;;;;;30.80;29.68;94735.31;4922688;29;20152;-78
2021/08/15 15:43:46;;;;;;;4.47;3.10;;;;;;;30.89;30.40;94742.63;4923198;29;20525;-79
2021/08/15 15:46:16;;;;;;;3.50;3.10;;;;;;;30.91;29.80;94741.25;4916578;29;20035;-78
2021/08/15 15:48:42;;;;;;;3.58;3.28;;;;;;;30.84;30.09;94738.19;4906889;29;20032;-79
2021/08/15 15:51:07;;;;;;;3.60;3.28;;;;;;;30.77;30.01;94733.25;4920288;29;20472;-80
2021/08/15 15:53:33;;;;;;;3.28;3.08;;;;;;;30.69;30.14;94728.63;4919748;29;20028;-77
2021/08/15 15:55:58;;;;;;;3.90;3.60;;;;;;;30.39;31.54;94728.47;4933633;29;20481;-78
2021/08/15 15:58:24;;;;;;;4.45;4.03;;;;;;;30.41;31.97;94732.44;4915485;29;20509;-78
2021/08/15 16:00:49;;;;;;;4.40;4.00;;;;;;;30.32;32.44;94720.84;4897037;29;20572;-76
2021/08/15 16:03:15;;;;;;;3.45;3.22;;;;;;;30.18;32.69;94728.13;4862543;29;20032;-83
2021/08/15 16:05:40;;;;;;;3.90;3.60;;;;;;;30.14;32.44;94725.25;4861772;29;20047;-77
2021/08/15 16:08:06;;;;;;;3.38;3.00;;;;;;;30.00;32.39;94720.97;4878810;29;20029;-80
2021/08/15 16:10:32;;;;;;;4.13;3.83;;;;;;;29.95;32.50;94723.75;4891811;29;20046;-78
2021/08/15 16:13:00;;;;;;;4.47;3.75;;;;;;;29.88;33.30;94721.50;4881834;29;20023;-76
2021/08/15 16:15:27;;;;;;;4.85;3.45;;;;;;;29.91;33.04;94718.22;4899041;29;20410;-77
2021/08/15 16:17:52;;;;;;;4.10;3.65;;;;;;;29.68;32.97;94716.50;4897228;29;20063;-77
2021/08/15 16:20:19;;;;;;;4.53;4.13;;;;;;;29.62;33.01;94720.34;4897688;29;20066;-77
2021/08/15 16:22:44;;;;;;;3.95;3.55;;;;;;;29.63;32.90;94722.75;4897397;29;20023;-80
2021/08/15 16:25:10;;;;;;;4.93;3.17;;;;;;;29.55;33.33;94728.75;4912988;29;20413;-80
2021/08/15 16:27:35;;;;;;;3.65;3.35;;;;;;;29.46;32.88;94727.84;4897269;29;20027;-77
2021/08/15 16:30:01;;;;;;;4.85;3.83;;;;;;;29.41;33.90;94727.16;4903175;29;20578;-77
2021/08/15 16:32:27;;;;;;;4.53;3.97;;;;;;;29.27;33.98;94724.44;4911653;29;20039;-77
2021/08/15 16:34:52;;;;;;;4.03;3.20;;;;;;;29.17;34.21;94725.38;4896757;29;20027;-77
2021/08/15 16:37:18;;;;;;;3.95;3.60;;;;;;;28.96;34.66;94723.34;4912854;29;20091;-78